createdAt,value
2023-05-17T04:47:01.351Z,18.18
2023-05-17T04:49:28.489Z,19.12
2023-05-17T04:51:55.171Z,18.58
2023-05-17T04:54:22.232Z,17.76
2023-05-17T04:56:49.111Z,17.73
2023-05-17T04:59:50.562Z,17.80
2023-05-17T05:02:20.314Z,17.75
2023-05-17T05:04:47.500Z,17.58
2023-05-17T05:07:14.393Z,17.85
2023-05-17T05:09:41.093Z,18.50
2023-05-17T05:12:08.335Z,18.94
2023-05-17T05:14:35.324Z,19.51
2023-05-17T05:17:02.338Z,19.50
2023-05-17T05:19:29.564Z,19.12
2023-05-17T05:21:56.535Z,19.34
2023-05-17T05:24:23.391Z,18.96
2023-05-17T05:26:50.397Z,19.28
2023-05-17T05:29:18.093Z,19.08
2023-05-17T05:31:45.185Z,19.54
2023-05-17T05:34:12.088Z,18.45
2023-05-17T05:36:39.034Z,19.29
2023-05-17T05:39:07.782Z,20.31
2023-05-17T05:41:36.295Z,20.66
2023-05-17T05:44:03.130Z,19.77
2023-05-17T05:46:30.083Z,19.96
2023-05-17T05:48:57.245Z,19.41
2023-05-17T05:51:24.500Z,19.28
2023-05-17T05:53:51.293Z,18.97
2023-05-17T05:56:18.235Z,19.25
2023-05-17T05:58:45.249Z,19.23
2023-05-17T06:01:12.088Z,19.24
2023-05-17T06:03:39.196Z,18.55
2023-05-17T06:06:06.418Z,18.95
2023-05-17T06:08:33.381Z,19.23
2023-05-17T06:11:00.588Z,19.50
2023-05-17T06:13:27.429Z,18.80
2023-05-17T06:15:54.238Z,19.90
2023-05-17T06:18:21.231Z,19.18
2023-05-17T06:20:48.192Z,19.95
2023-05-17T06:23:15.390Z,19.75
2023-05-17T06:25:45.729Z,20.06
2023-05-17T06:28:14.266Z,20.37
2023-05-17T06:30:41.167Z,21.09
2023-05-17T06:33:08.890Z,21.28
2023-05-17T06:35:47.952Z,20.93
2023-05-17T06:38:22.478Z,20.63
2023-05-17T06:40:56.081Z,20.26
2023-05-17T06:43:23.232Z,20.32
2023-05-17T06:45:50.505Z,20.16
2023-05-17T06:48:17.479Z,19.56
2023-05-17T06:50:44.808Z,20.11
2023-05-17T06:53:11.581Z,20.60
2023-05-17T06:55:41.158Z,20.92
2023-05-17T06:58:08.028Z,21.71
2023-05-17T07:00:34.957Z,21.16
2023-05-17T07:03:01.866Z,22.21
2023-05-17T07:05:31.247Z,21.64
2023-05-17T07:08:01.455Z,21.92
2023-05-17T07:10:28.315Z,21.86
2023-05-17T07:12:55.410Z,21.81
2023-05-17T07:15:22.342Z,21.58
2023-05-17T07:17:49.259Z,21.56
2023-05-17T07:20:16.832Z,21.60
2023-05-17T07:22:43.853Z,21.22
2023-05-17T07:25:10.905Z,21.48
2023-05-17T07:27:37.997Z,21.10
2023-05-17T07:30:05.534Z,21.73
2023-05-17T07:32:32.542Z,21.44
2023-05-17T07:35:01.664Z,21.06
2023-05-17T07:37:28.678Z,21.05
2023-05-17T07:39:55.574Z,21.74
2023-05-17T07:42:26.975Z,21.51
2023-05-17T07:45:07.183Z,21.34
2023-05-17T07:47:34.243Z,22.08
2023-05-17T07:50:01.430Z,22.19
2023-05-17T07:52:28.325Z,22.23
2023-05-17T07:54:55.368Z,22.34
2023-05-17T07:57:22.325Z,21.61
2023-05-17T07:59:52.153Z,22.16
2023-05-17T08:02:19.023Z,22.39
2023-05-17T08:04:46.141Z,21.83
2023-05-17T08:07:12.965Z,22.10
2023-05-17T08:09:40.418Z,21.76
2023-05-17T08:12:10.594Z,21.98
2023-05-17T08:14:37.447Z,22.16
2023-05-17T08:17:04.614Z,21.91
2023-05-17T08:19:31.799Z,22.02
2023-05-17T08:21:59.241Z,22.25
2023-05-17T08:24:26.537Z,21.64
2023-05-17T08:26:55.236Z,21.94
2023-05-17T08:29:22.442Z,21.69
2023-05-17T08:31:49.696Z,21.73
2023-05-17T08:34:16.583Z,21.82
2023-05-17T08:36:44.730Z,22.04
2023-05-17T08:39:15.787Z,22.05
2023-05-17T08:41:42.570Z,21.85
2023-05-17T08:44:09.867Z,22.09
2023-05-17T08:46:40.921Z,22.22
2023-05-17T08:49:13.345Z,22.50
2023-05-17T08:51:42.343Z,22.97
2023-05-17T08:54:09.327Z,23.64
2023-05-17T08:56:42.362Z,23.31
2023-05-17T08:59:13.550Z,23.52
2023-05-17T09:01:43.152Z,23.47
2023-05-17T09:04:10.853Z,23.77
2023-05-17T09:06:38.344Z,23.85
2023-05-17T09:09:07.602Z,23.73
2023-05-17T09:11:34.486Z,24.27
2023-05-17T09:14:03.268Z,23.73
2023-05-17T09:16:36.481Z,23.56
2023-05-17T09:19:05.716Z,24.36
2023-05-17T09:21:34.109Z,24.18
2023-05-17T09:26:39.334Z,24.35
2023-05-17T09:29:10.675Z,24.24
2023-05-17T09:31:37.525Z,23.86
2023-05-17T09:34:05.472Z,24.58
2023-05-17T09:36:42.274Z,24.70
2023-05-17T09:39:14.837Z,24.49
2023-05-17T09:41:48.017Z,24.12
2023-05-17T09:44:15.809Z,23.61
2023-05-17T09:46:47.979Z,24.27
2023-05-17T09:49:17.111Z,24.18
2023-05-17T09:51:48.327Z,23.70
2023-05-17T09:54:15.868Z,23.27
2023-05-17T09:56:43.265Z,23.03
2023-05-17T09:59:15.011Z,23.10
2023-05-17T10:01:43.047Z,22.90
2023-05-17T10:04:11.293Z,23.66
2023-05-17T10:09:15.979Z,24.19
2023-05-17T10:11:46.862Z,24.64
2023-05-17T10:14:19.137Z,24.38
2023-05-17T10:16:47.212Z,24.70
2023-05-17T10:19:15.126Z,24.52
2023-05-17T10:21:43.399Z,24.40
2023-05-17T10:24:11.752Z,24.64
2023-05-17T10:26:39.723Z,24.29
2023-05-17T10:29:07.795Z,24.33
2023-05-17T10:31:34.875Z,24.22
2023-05-17T10:34:02.964Z,23.72
2023-05-17T10:36:30.430Z,23.83
2023-05-17T10:38:58.699Z,23.29
2023-05-17T10:41:33.263Z,23.37
2023-05-17T10:44:03.397Z,22.93
2023-05-17T10:46:37.962Z,23.04
2023-05-17T10:49:05.468Z,23.17
2023-05-17T10:51:34.744Z,23.36
2023-05-17T10:54:13.112Z,23.12
2023-05-17T10:56:43.139Z,22.79
2023-05-17T10:59:27.287Z,22.86
2023-05-17T11:02:05.979Z,23.00
2023-05-17T11:04:38.162Z,23.24
2023-05-17T11:07:18.040Z,23.50
2023-05-17T11:09:47.038Z,23.67
2023-05-17T11:12:17.108Z,23.35
2023-05-17T11:14:48.286Z,23.73
2023-05-17T11:17:15.246Z,23.65
2023-05-17T11:19:57.662Z,23.46
2023-05-17T11:22:28.608Z,24.00
2023-05-17T11:24:58.130Z,23.88
2023-05-17T11:27:28.430Z,24.28
2023-05-17T11:29:59.629Z,23.98
2023-05-17T11:32:29.238Z,23.52
2023-05-17T11:34:56.812Z,24.01
2023-05-17T11:37:30.201Z,24.19
2023-05-17T11:40:28.194Z,24.03
2023-05-17T11:43:15.144Z,23.86
2023-05-17T11:45:52.796Z,23.90
2023-05-17T11:48:24.959Z,23.77
2023-05-17T11:50:57.115Z,24.00
2023-05-17T11:53:28.678Z,22.96
2023-05-17T11:55:56.446Z,22.86
2023-05-17T11:58:27.418Z,22.95
2023-05-17T12:00:57.160Z,22.61
2023-05-17T12:03:27.049Z,22.49
2023-05-17T12:06:17.393Z,22.81
2023-05-17T12:08:47.327Z,22.66
2023-05-17T12:11:17.869Z,23.13
2023-05-17T12:13:47.158Z,23.27
2023-05-17T12:16:17.915Z,22.90
2023-05-17T12:18:49.749Z,22.91
2023-05-17T12:21:18.908Z,22.89
2023-05-17T12:23:49.518Z,22.51
2023-05-17T12:26:24.214Z,22.51
2023-05-17T12:28:55.770Z,22.38
2023-05-17T12:31:34.733Z,22.24
2023-05-17T12:34:05.031Z,22.16
2023-05-17T12:36:37.519Z,22.12
2023-05-17T12:39:06.424Z,21.16
2023-05-17T12:41:33.639Z,20.23
2023-05-17T12:44:13.941Z,19.87
2023-05-17T12:46:42.051Z,19.31
2023-05-17T12:49:10.376Z,18.80
2023-05-17T12:51:46.458Z,18.95
2023-05-17T12:54:29.641Z,18.25
2023-05-17T12:56:57.208Z,18.57
2023-05-17T12:59:29.306Z,17.82
2023-05-17T13:01:58.549Z,17.91
2023-05-17T13:04:32.038Z,17.78
2023-05-17T13:07:08.311Z,17.77
2023-05-17T13:09:45.642Z,17.10
2023-05-17T13:12:12.703Z,17.39
2023-05-17T13:14:46.576Z,16.95
2023-05-17T13:17:27.546Z,16.55
2023-05-17T13:19:58.730Z,16.49
2023-05-17T13:22:26.322Z,16.27
2023-05-17T13:24:53.872Z,15.99
2023-05-17T13:27:23.896Z,16.20
2023-05-17T13:29:52.365Z,16.26
2023-05-17T13:32:19.514Z,16.05
2023-05-17T13:34:46.512Z,15.88
2023-05-17T13:37:13.328Z,16.35
2023-05-17T13:39:41.828Z,16.01
2023-05-17T13:42:10.212Z,16.42
2023-05-17T13:44:38.560Z,16.19
2023-05-17T13:47:05.870Z,16.15
2023-05-17T13:49:32.835Z,15.78
2023-05-17T13:52:11.213Z,15.66
2023-05-17T13:54:39.441Z,15.70
2023-05-17T13:57:08.004Z,15.22
2023-05-17T13:59:34.980Z,15.38
2023-05-17T14:02:02.437Z,15.09
2023-05-17T14:04:29.327Z,15.32
2023-05-17T14:06:56.517Z,15.82
2023-05-17T14:09:23.503Z,15.62
2023-05-17T14:11:50.320Z,15.33
2023-05-17T14:14:17.272Z,15.53
2023-05-17T14:16:44.265Z,15.75
2023-05-17T14:19:11.371Z,16.09
2023-05-17T14:21:38.480Z,15.91
2023-05-17T14:24:05.788Z,15.78
2023-05-17T14:26:34.461Z,16.02
2023-05-17T14:29:01.264Z,15.91
2023-05-17T14:31:30.091Z,15.94
2023-05-17T14:33:57.519Z,16.15
2023-05-17T14:36:26.716Z,16.06
2023-05-17T14:41:36.965Z,15.92
2023-05-17T14:44:04.011Z,15.76
2023-05-17T14:46:30.869Z,15.76
2023-05-17T14:48:57.877Z,15.93
2023-05-17T14:51:25.185Z,15.55
2023-05-17T14:53:52.808Z,15.72
2023-05-17T14:56:19.823Z,15.59
2023-05-17T15:01:18.388Z,16.20
2023-05-17T15:03:46.613Z,15.98
2023-05-17T15:06:25.016Z,15.96
2023-05-17T15:08:53.035Z,15.75
2023-05-17T15:14:02.763Z,15.62
2023-05-17T15:16:29.842Z,15.52
2023-05-17T15:18:57.737Z,15.58
2023-05-17T15:21:25.482Z,15.41
2023-05-17T15:23:52.831Z,15.42
2023-05-17T15:26:19.884Z,15.32
2023-05-17T15:28:50.569Z,15.32
2023-05-17T15:31:17.414Z,15.36
2023-05-17T15:33:47.069Z,15.28
2023-05-17T15:36:15.251Z,15.67
2023-05-17T15:38:44.390Z,15.99
2023-05-17T15:41:14.427Z,15.51
2023-05-17T15:43:41.830Z,15.85
2023-05-17T15:46:08.942Z,15.84
2023-05-17T15:48:36.671Z,15.36
2023-05-17T15:51:03.987Z,15.54
2023-05-17T15:53:31.455Z,15.69
2023-05-17T15:55:58.289Z,15.31
2023-05-17T15:58:33.006Z,15.50
2023-05-17T16:01:04.165Z,15.67
2023-05-17T16:03:31.173Z,15.47
2023-05-17T16:05:58.300Z,15.46
2023-05-17T16:08:27.535Z,15.51
2023-05-17T16:10:54.426Z,15.72
2023-05-17T16:13:21.361Z,15.84
2023-05-17T16:15:58.367Z,15.53
2023-05-17T16:18:47.006Z,15.14
2023-05-17T16:21:16.176Z,15.16
2023-05-17T16:23:45.358Z,15.04
2023-05-17T16:26:16.914Z,14.98
2023-05-17T16:28:53.191Z,15.48
2023-05-17T16:31:20.280Z,15.34
2023-05-17T16:33:47.443Z,15.24
2023-05-17T16:36:18.069Z,15.15
2023-05-17T16:38:44.895Z,14.90
2023-05-17T16:41:11.650Z,15.08
2023-05-17T16:43:40.918Z,15.12
2023-05-17T16:46:07.799Z,15.26
2023-05-17T16:48:34.775Z,15.34
2023-05-17T16:51:01.896Z,15.32
2023-05-17T16:53:29.240Z,15.51
2023-05-17T16:55:56.276Z,15.19
2023-05-17T16:58:23.196Z,15.43
2023-05-17T17:00:50.138Z,15.54
2023-05-17T17:03:16.993Z,15.56
2023-05-17T17:05:44.174Z,15.85
2023-05-17T17:08:11.575Z,15.51
2023-05-17T17:10:38.565Z,15.45
2023-05-17T17:13:05.372Z,15.47
2023-05-17T17:15:32.397Z,15.17
2023-05-17T17:17:59.312Z,15.47
2023-05-17T17:20:26.656Z,15.06
2023-05-17T17:22:53.612Z,15.29
2023-05-17T17:25:20.587Z,15.12
2023-05-17T17:27:47.441Z,15.56
2023-05-17T17:30:17.105Z,15.87
2023-05-17T17:32:44.445Z,15.61
2023-05-17T17:35:11.727Z,15.66
2023-05-17T17:37:38.512Z,15.71
2023-05-17T17:40:06.544Z,15.71
2023-05-17T17:42:33.552Z,15.72
2023-05-17T17:45:01.579Z,15.77
2023-05-17T17:47:28.553Z,15.69
2023-05-17T17:49:55.483Z,15.73
2023-05-17T17:52:22.272Z,15.67
2023-05-17T17:54:51.605Z,15.74
2023-05-17T17:57:19.479Z,15.78
2023-05-17T17:59:46.386Z,15.30
2023-05-17T18:02:13.238Z,15.17
2023-05-17T18:04:41.656Z,15.54
2023-05-17T18:07:08.664Z,15.06
2023-05-17T18:09:35.683Z,15.24
2023-05-17T18:12:02.660Z,15.43
2023-05-17T18:14:29.529Z,15.27
2023-05-17T18:16:56.658Z,15.28
2023-05-17T18:19:26.703Z,15.50
2023-05-17T18:21:53.757Z,15.16
2023-05-17T18:24:23.804Z,15.30
2023-05-17T18:29:31.681Z,15.23
2023-05-17T18:32:00.031Z,15.29
2023-05-17T18:34:28.697Z,15.32
2023-05-17T18:36:55.757Z,15.14
2023-05-17T18:39:43.012Z,14.92
2023-05-17T18:42:09.965Z,15.00
2023-05-17T18:44:37.331Z,15.07
2023-05-17T18:47:04.370Z,15.15
2023-05-17T18:49:31.759Z,15.00
2023-05-17T18:51:58.849Z,14.93
2023-05-17T18:54:25.922Z,14.98
2023-05-17T18:56:52.921Z,15.16
2023-05-17T18:59:19.811Z,15.10
2023-05-17T19:01:47.134Z,15.07
2023-05-17T19:04:22.873Z,15.17
2023-05-17T19:06:49.847Z,15.43
2023-05-17T19:09:19.718Z,14.96
2023-05-17T19:11:52.508Z,15.04
2023-05-17T19:14:42.099Z,14.88
2023-05-17T19:17:12.998Z,15.37
2023-05-17T19:19:40.119Z,15.12
2023-05-17T19:22:08.346Z,14.88
2023-05-17T19:24:36.993Z,15.06
2023-05-17T19:27:04.834Z,15.11
2023-05-17T19:29:33.181Z,14.75
2023-05-17T19:32:00.048Z,14.77
2023-05-17T19:34:26.845Z,14.83
2023-05-17T19:36:53.633Z,14.73
2023-05-17T19:39:20.496Z,15.08
2023-05-17T19:41:48.456Z,14.68
2023-05-17T19:44:15.338Z,14.66
2023-05-17T19:46:42.961Z,14.75
2023-05-17T19:49:09.936Z,14.63
2023-05-17T19:51:37.108Z,14.87
2023-05-17T19:54:04.107Z,14.92
2023-05-17T19:56:31.282Z,15.02
2023-05-17T19:58:58.345Z,14.75
2023-05-17T20:01:25.326Z,14.59
2023-05-17T20:03:52.435Z,14.51
2023-05-17T20:06:19.475Z,14.73
2023-05-17T20:08:47.019Z,14.67
2023-05-17T20:11:14.587Z,14.75
2023-05-17T20:13:41.448Z,14.67
2023-05-17T20:16:13.295Z,14.97
2023-05-17T20:18:43.944Z,14.79
2023-05-17T20:21:14.411Z,15.07
2023-05-17T20:23:41.695Z,15.06
2023-05-17T20:26:08.774Z,14.85
2023-05-17T20:28:43.711Z,15.00
2023-05-17T20:31:11.120Z,14.93
2023-05-17T20:33:38.480Z,15.12
2023-05-17T20:36:22.538Z,14.95
2023-05-17T20:38:57.282Z,15.03
2023-05-17T20:41:27.256Z,14.78
2023-05-17T20:43:54.749Z,14.81
2023-05-17T20:46:42.475Z,15.01
2023-05-17T20:49:09.961Z,14.89
2023-05-17T20:51:37.175Z,14.90
2023-05-17T20:54:06.257Z,14.78
2023-05-17T20:56:35.250Z,14.85
2023-05-17T21:01:49.121Z,14.85
2023-05-17T21:04:23.936Z,14.68
2023-05-17T21:06:58.280Z,14.81
2023-05-17T21:09:28.055Z,14.71
2023-05-17T21:11:58.736Z,14.81
2023-05-17T21:14:29.945Z,14.84
2023-05-17T21:16:57.072Z,14.79
2023-05-17T21:19:24.234Z,14.63
2023-05-17T21:21:51.253Z,14.80
2023-05-17T21:24:18.400Z,14.68
2023-05-17T21:26:45.288Z,14.88
2023-05-17T21:29:12.479Z,14.82
2023-05-17T21:31:39.308Z,14.81
2023-05-17T21:34:06.189Z,14.80
2023-05-17T21:36:33.240Z,14.67
2023-05-17T21:39:00.087Z,14.46
2023-05-17T21:41:36.004Z,14.28
2023-05-17T21:47:07.505Z,14.31
2023-05-17T21:49:40.065Z,14.66
2023-05-17T21:52:16.113Z,14.85
2023-05-17T21:54:43.370Z,14.35
2023-05-17T21:57:14.424Z,14.54
2023-05-17T22:27:38.803Z,14.96
2023-05-17T22:30:07.813Z,14.64
2023-05-17T22:32:34.912Z,14.75
2023-05-17T22:35:02.022Z,14.29
2023-05-17T22:37:30.507Z,14.21
2023-05-17T22:39:57.380Z,14.03
2023-05-17T22:42:25.197Z,14.06
2023-05-17T22:44:52.457Z,14.16
2023-05-17T22:47:23.113Z,13.98
2023-05-17T22:49:52.992Z,14.06
2023-05-17T22:52:20.450Z,14.12
2023-05-17T22:54:47.691Z,14.14
2023-05-17T22:57:15.033Z,14.27
2023-05-17T22:59:44.276Z,14.32
2023-05-17T23:02:16.974Z,14.15
2023-05-17T23:04:46.109Z,14.19
2023-05-17T23:07:13.086Z,14.55
2023-05-17T23:09:40.836Z,14.56
2023-05-17T23:12:14.324Z,14.56
2023-05-17T23:14:41.281Z,14.59
2023-05-17T23:17:08.721Z,14.65
2023-05-17T23:19:35.810Z,14.57
2023-05-17T23:22:04.229Z,14.60
2023-05-17T23:24:31.094Z,14.30
2023-05-17T23:26:59.005Z,14.53
2023-05-17T23:29:28.783Z,14.49
2023-05-17T23:31:56.023Z,14.87
2023-05-17T23:34:24.041Z,14.76
2023-05-17T23:36:51.058Z,14.74
2023-05-17T23:39:18.255Z,14.87
2023-05-17T23:41:45.188Z,14.96
2023-05-17T23:44:14.122Z,14.99
2023-05-17T23:46:44.787Z,14.90
2023-05-17T23:49:14.524Z,14.77
2023-05-17T23:51:41.652Z,14.68
2023-05-17T23:54:11.856Z,14.81
2023-05-17T23:56:42.309Z,14.86
2023-05-17T23:59:26.367Z,14.87
